sensor_id;sensor_type;location;lat;lon;timestamp;pressure;altitude;pressure_sealevel;temperature;humidity
80103;BME280;69865;47.648;19.030;2024-02-23T00:00:29;99121.78;;;10.75;58.46
80103;BME280;69865;47.648;19.030;2024-02-23T00:01:01;99122.47;;;10.77;57.76
80103;BME280;69865;47.648;19.030;2024-02-23T00:01:33;99110.47;;;10.74;58.42
80103;BME280;69865;47.648;19.030;2024-02-23T00:02:05;99128.72;;;10.76;58.50
80103;BME280;69865;47.648;19.030;2024-02-23T00:02:38;99126.25;;;10.74;58.25
80103;BME280;69865;47.648;19.030;2024-02-23T00:03:10;99113.75;;;10.76;57.58
80103;BME280;69865;47.648;19.030;2024-02-23T00:03:42;99117.69;;;10.80;58.35
80103;BME280;69865;47.648;19.030;2024-02-23T00:04:14;99109.16;;;10.78;57.80
80103;BME280;69865;47.648;19.030;2024-02-23T00:04:46;99096.63;;;10.80;57.94
80103;BME280;69865;47.648;19.030;2024-02-23T00:05:18;99115.56;;;10.84;58.04
80103;BME280;69865;47.648;19.030;2024-02-23T00:05:50;99113.91;;;10.83;58.08
80103;BME280;69865;47.648;19.030;2024-02-23T00:06:22;99109.47;;;10.83;57.93
80103;BME280;69865;47.648;19.030;2024-02-23T00:06:54;99115.88;;;10.81;58.32
80103;BME280;69865;47.648;19.030;2024-02-23T00:07:26;99114.09;;;10.81;58.28
80103;BME280;69865;47.648;19.030;2024-02-23T00:07:58;99119.69;;;10.78;57.97
80103;BME280;69865;47.648;19.030;2024-02-23T00:08:30;99124.28;;;10.76;58.25
80103;BME280;69865;47.648;19.030;2024-02-23T00:09:03;99121.50;;;10.78;58.02
80103;BME280;69865;47.648;19.030;2024-02-23T00:09:35;99120.00;;;10.75;58.06
80103;BME280;69865;47.648;19.030;2024-02-23T00:10:07;99111.44;;;10.73;58.14
80103;BME280;69865;47.648;19.030;2024-02-23T00:10:41;99110.47;;;10.74;58.74
80103;BME280;69865;47.648;19.030;2024-02-23T00:11:13;99122.47;;;10.77;58.72
80103;BME280;69865;47.648;19.030;2024-02-23T00:11:45;99114.72;;;10.75;58.65
80103;BME280;69865;47.648;19.030;2024-02-23T00:12:17;99117.69;;;10.80;57.70
80103;BME280;69865;47.648;19.030;2024-02-23T00:12:49;99123.13;;;10.79;57.70
80103;BME280;69865;47.648;19.030;2024-02-23T00:13:22;99115.41;;;10.77;58.11
80103;BME280;69865;47.648;19.030;2024-02-23T00:13:54;99118.19;;;10.76;58.62
80103;BME280;69865;47.648;19.030;2024-02-23T00:14:26;99119.50;;;10.80;57.65
80103;BME280;69865;47.648;19.030;2024-02-23T00:14:58;99117.69;;;10.80;57.89
80103;BME280;69865;47.648;19.030;2024-02-23T00:15:30;99116.72;;;10.81;57.96
80103;BME280;69865;47.648;19.030;2024-02-23T00:16:03;99117.22;;;10.85;58.31
80103;BME280;69865;47.648;19.030;2024-02-23T00:16:38;99124.78;;;10.88;57.38
80103;BME280;69865;47.648;19.030;2024-02-23T00:17:10;99111.78;;;10.87;58.28
80103;BME280;69865;47.648;19.030;2024-02-23T00:17:42;99116.88;;;10.88;57.50
80103;BME280;69865;47.648;19.030;2024-02-23T00:18:14;99109.94;;;10.87;57.48
80103;BME280;69865;47.648;19.030;2024-02-23T00:18:46;99117.69;;;10.89;58.16
80103;BME280;69865;47.648;19.030;2024-02-23T00:19:18;99112.28;;;10.90;57.87
80103;BME280;69865;47.648;19.030;2024-02-23T00:19:51;99114.91;;;10.90;57.74
80103;BME280;69865;47.648;19.030;2024-02-23T00:20:23;99113.59;;;10.94;58.01
80103;BME280;69865;47.648;19.030;2024-02-23T00:20:55;99107.00;;;10.90;57.96
80103;BME280;69865;47.648;19.030;2024-02-23T00:21:27;99117.22;;;10.93;58.05
80103;BME280;69865;47.648;19.030;2024-02-23T00:21:59;99122.63;;;10.92;57.84
80103;BME280;69865;47.648;19.030;2024-02-23T00:22:32;99107.66;;;10.92;58.79
80103;BME280;69865;47.648;19.030;2024-02-23T00:23:05;99118.19;;;10.92;57.64
80103;BME280;69865;47.648;19.030;2024-02-23T00:23:37;99107.84;;;10.91;58.33
80103;BME280;69865;47.648;19.030;2024-02-23T00:24:09;99113.75;;;10.93;58.38
80103;BME280;69865;47.648;19.030;2024-02-23T00:24:41;99114.56;;;10.93;57.69
80103;BME280;69865;47.648;19.030;2024-02-23T00:25:14;99105.69;;;10.94;58.10
80103;BME280;69865;47.648;19.030;2024-02-23T00:25:47;99104.69;;;10.95;57.54
80103;BME280;69865;47.648;19.030;2024-02-23T00:26:19;99108.47;;;10.93;57.43
80103;BME280;69865;47.648;19.030;2024-02-23T00:26:51;99106.81;;;10.92;58.31
80103;BME280;69865;47.648;19.030;2024-02-23T00:27:23;99107.84;;;10.91;57.78
80103;BME280;69865;47.648;19.030;2024-02-23T00:27:55;99110.13;;;10.94;58.21
80103;BME280;69865;47.648;19.030;2024-02-23T00:28:27;99106.81;;;10.92;57.46
80103;BME280;69865;47.648;19.030;2024-02-23T00:29:03;99095.31;;;10.93;57.84
80103;BME280;69865;47.648;19.030;2024-02-23T00:29:35;99109.16;;;10.95;57.69
80103;BME280;69865;47.648;19.030;2024-02-23T00:30:08;99111.78;;;10.95;57.52
80103;BME280;69865;47.648;19.030;2024-02-23T00:30:40;99116.38;;;10.93;57.76
80103;BME280;69865;47.648;19.030;2024-02-23T00:31:12;99107.66;;;10.92;58.40
80103;BME280;69865;47.648;19.030;2024-02-23T00:31:44;99103.88;;;10.95;57.81
80103;BME280;69865;47.648;19.030;2024-02-23T00:32:16;99109.66;;;10.98;58.23
80103;BME280;69865;47.648;19.030;2024-02-23T00:32:49;99107.66;;;11.00;57.73
80103;BME280;69865;47.648;19.030;2024-02-23T00:33:21;99108.63;;;10.99;58.10
80103;BME280;69865;47.648;19.030;2024-02-23T00:33:53;99105.34;;;10.97;57.71
80103;BME280;69865;47.648;19.030;2024-02-23T00:34:25;99101.91;;;10.97;57.95
80103;BME280;69865;47.648;19.030;2024-02-23T00:34:57;99104.88;;;11.02;57.40
80103;BME280;69865;47.648;19.030;2024-02-23T00:35:29;99109.31;;;11.01;58.29
80103;BME280;69865;47.648;19.030;2024-02-23T00:36:01;99111.75;;;11.03;57.91
80103;BME280;69865;47.648;19.030;2024-02-23T00:36:33;99111.59;;;11.04;57.61
80103;BME280;69865;47.648;19.030;2024-02-23T00:37:05;99111.94;;;11.01;58.23
80103;BME280;69865;47.648;19.030;2024-02-23T00:37:37;99116.53;;;10.99;57.96
80103;BME280;69865;47.648;19.030;2024-02-23T00:38:09;99103.38;;;10.99;57.45
80103;BME280;69865;47.648;19.030;2024-02-23T00:38:42;99096.13;;;11.01;58.46
80103;BME280;69865;47.648;19.030;2024-02-23T00:39:14;99093.50;;;11.01;58.42
80103;BME280;69865;47.648;19.030;2024-02-23T00:39:46;99095.31;;;11.01;58.25
80103;BME280;69865;47.648;19.030;2024-02-23T00:40:18;99097.13;;;11.00;58.02
80103;BME280;69865;47.648;19.030;2024-02-23T00:40:52;99100.09;;;10.97;58.35
80103;BME280;69865;47.648;19.030;2024-02-23T00:41:24;99112.44;;;11.05;57.39
80103;BME280;69865;47.648;19.030;2024-02-23T00:41:56;99091.84;;;11.08;58.29
80103;BME280;69865;47.648;19.030;2024-02-23T00:42:28;99091.34;;;11.05;57.36
80103;BME280;69865;47.648;19.030;2024-02-23T00:43:00;99093.00;;;11.06;58.22
80103;BME280;69865;47.648;19.030;2024-02-23T00:43:38;99095.78;;;11.04;58.07
80103;BME280;69865;47.648;19.030;2024-02-23T00:44:10;99099.25;;;11.05;58.07
80103;BME280;69865;47.648;19.030;2024-02-23T00:44:42;99107.00;;;11.06;57.97
80103;BME280;69865;47.648;19.030;2024-02-23T00:45:14;99093.97;;;11.05;57.84
80103;BME280;69865;47.648;19.030;2024-02-23T00:45:46;99104.03;;;11.01;57.61
80103;BME280;69865;47.648;19.030;2024-02-23T00:46:18;99102.03;;;11.03;58.15
80103;BME280;69865;47.648;19.030;2024-02-23T00:46:50;99091.84;;;11.00;58.39
80103;BME280;69865;47.648;19.030;2024-02-23T00:47:22;99097.78;;;11.02;58.47
80103;BME280;69865;47.648;19.030;2024-02-23T00:47:55;99090.19;;;11.07;57.69
80103;BME280;69865;47.648;19.030;2024-02-23T00:48:27;99096.13;;;11.09;57.46
80103;BME280;69865;47.648;19.030;2024-02-23T00:48:59;99101.41;;;11.09;57.19
80103;BME280;69865;47.648;19.030;2024-02-23T00:49:31;99092.66;;;11.09;58.07
80103;BME280;69865;47.648;19.030;2024-02-23T00:50:04;99090.03;;;11.09;57.68
80103;BME280;69865;47.648;19.030;2024-02-23T00:50:40;99079.50;;;11.09;58.08
80103;BME280;69865;47.648;19.030;2024-02-23T00:51:12;99083.59;;;11.11;58.02
80103;BME280;69865;47.648;19.030;2024-02-23T00:51:44;99088.84;;;11.11;58.54
80103;BME280;69865;47.648;19.030;2024-02-23T00:52:16;99096.63;;;11.13;57.92
80103;BME280;69865;47.648;19.030;2024-02-23T00:52:48;99102.88;;;11.12;58.47
80103;BME280;69865;47.648;19.030;2024-02-23T00:53:20;99106.47;;;11.11;58.43
80103;BME280;69865;47.648;19.030;2024-02-23T00:53:52;99097.78;;;11.10;58.65
80103;BME280;69865;47.648;19.030;2024-02-23T00:54:24;99090.19;;;11.07;58.90
80103;BME280;69865;47.648;19.030;2024-02-23T00:54:56;99087.25;;;11.02;58.38
80103;BME280;69865;47.648;19.030;2024-02-23T00:55:28;99093.16;;;11.04;58.39
80103;BME280;69865;47.648;19.030;2024-02-23T00:56:02;99097.78;;;11.02;58.83
80103;BME280;69865;47.648;19.030;2024-02-23T00:56:34;99093.16;;;11.04;58.59
80103;BME280;69865;47.648;19.030;2024-02-23T00:57:21;99090.69;;;11.03;57.93
80103;BME280;69865;47.648;19.030;2024-02-23T00:57:53;99093.84;;;11.06;58.63
80103;BME280;69865;47.648;19.030;2024-02-23T00:58:25;99086.41;;;11.10;58.45
80103;BME280;69865;47.648;19.030;2024-02-23T00:58:57;99089.19;;;11.08;58.68
80103;BME280;69865;47.648;19.030;2024-02-23T00:59:29;99078.50;;;11.10;58.58
80103;BME280;69865;47.648;19.030;2024-02-23T01:00:02;99084.59;;;11.10;58.53
80103;BME280;69865;47.648;19.030;2024-02-23T01:00:34;99086.41;;;11.10;57.93
80103;BME280;69865;47.648;19.030;2024-02-23T01:01:06;99081.63;;;11.05;58.34
80103;BME280;69865;47.648;19.030;2024-02-23T01:01:39;99092.50;;;11.10;58.47
80103;BME280;69865;47.648;19.030;2024-02-23T01:02:11;99082.75;;;11.11;58.56
80103;BME280;69865;47.648;19.030;2024-02-23T01:02:43;99085.41;;;11.11;57.78
80103;BME280;69865;47.648;19.030;2024-02-23T01:03:15;99077.69;;;11.09;58.86
80103;BME280;69865;47.648;19.030;2024-02-23T01:03:47;99083.78;;;11.10;59.07
80103;BME280;69865;47.648;19.030;2024-02-23T01:04:22;99076.34;;;11.13;58.59
80103;BME280;69865;47.648;19.030;2024-02-23T01:04:57;99081.97;;;11.10;58.17
80103;BME280;69865;47.648;19.030;2024-02-23T01:05:29;99079.81;;;11.14;57.75
80103;BME280;69865;47.648;19.030;2024-02-23T01:06:01;99080.47;;;11.16;57.83
80103;BME280;69865;47.648;19.030;2024-02-23T01:06:33;99081.28;;;11.16;57.79
80103;BME280;69865;47.648;19.030;2024-02-23T01:07:05;99073.72;;;11.13;58.39
80103;BME280;69865;47.648;19.030;2024-02-23T01:07:37;99073.25;;;11.10;58.64
80103;BME280;69865;47.648;19.030;2024-02-23T01:08:10;99085.59;;;11.09;58.56
80103;BME280;69865;47.648;19.030;2024-02-23T01:08:42;99079.84;;;11.06;58.05
80103;BME280;69865;47.648;19.030;2024-02-23T01:09:14;99085.75;;;11.08;57.85
80103;BME280;69865;47.648;19.030;2024-02-23T01:09:46;99085.59;;;11.09;58.73
80103;BME280;69865;47.648;19.030;2024-02-23T01:10:18;99074.22;;;11.09;58.31
80103;BME280;69865;47.648;19.030;2024-02-23T01:10:50;99082.13;;;11.09;58.45
80103;BME280;69865;47.648;19.030;2024-02-23T01:11:24;99068.28;;;11.07;58.44
80103;BME280;69865;47.648;19.030;2024-02-23T01:11:56;99060.91;;;11.02;58.43
80103;BME280;69865;47.648;19.030;2024-02-23T01:12:28;99068.63;;;11.04;58.83
80103;BME280;69865;47.648;19.030;2024-02-23T01:13:00;99067.47;;;11.06;58.76
80103;BME280;69865;47.648;19.030;2024-02-23T01:13:33;99064.03;;;11.06;59.34
80103;BME280;69865;47.648;19.030;2024-02-23T01:14:05;99070.13;;;11.06;58.38
80103;BME280;69865;47.648;19.030;2024-02-23T01:14:37;99072.91;;;11.05;59.36
80103;BME280;69865;47.648;19.030;2024-02-23T01:15:09;99061.38;;;11.06;58.95
80103;BME280;69865;47.648;19.030;2024-02-23T01:15:41;99073.38;;;11.08;59.18
80103;BME280;69865;47.648;19.030;2024-02-23T01:16:13;99068.13;;;11.08;59.37
80103;BME280;69865;47.648;19.030;2024-02-23T01:16:45;99063.00;;;11.07;59.98
80103;BME280;69865;47.648;19.030;2024-02-23T01:17:18;99063.19;;;11.05;59.11
80103;BME280;69865;47.648;19.030;2024-02-23T01:17:50;99066.66;;;11.06;59.71
80103;BME280;69865;47.648;19.030;2024-02-23T01:18:22;99066.81;;;11.04;59.29
80103;BME280;69865;47.648;19.030;2024-02-23T01:18:54;99062.03;;;11.00;59.44
80103;BME280;69865;47.648;19.030;2024-02-23T01:19:26;99059.59;;;10.98;59.81
80103;BME280;69865;47.648;19.030;2024-02-23T01:19:59;99066.16;;;11.02;59.66
80103;BME280;69865;47.648;19.030;2024-02-23T01:20:31;99060.22;;;11.00;59.56
80103;BME280;69865;47.648;19.030;2024-02-23T01:21:03;99060.72;;;11.04;59.28
80103;BME280;69865;47.648;19.030;2024-02-23T01:21:36;99058.41;;;11.01;59.61
80103;BME280;69865;47.648;19.030;2024-02-23T01:22:08;99054.63;;;11.03;59.43
80103;BME280;69865;47.648;19.030;2024-02-23T01:22:41;99069.78;;;11.01;59.34
80103;BME280;69865;47.648;19.030;2024-02-23T01:23:13;99073.25;;;11.02;59.60
80103;BME280;69865;47.648;19.030;2024-02-23T01:23:45;99054.97;;;11.00;59.23
80103;BME280;69865;47.648;19.030;2024-02-23T01:24:17;99064.03;;;10.98;59.69
80103;BME280;69865;47.648;19.030;2024-02-23T01:24:49;99063.19;;;10.97;60.18
80103;BME280;69865;47.648;19.030;2024-02-23T01:25:21;99063.06;;;10.99;59.45
80103;BME280;69865;47.648;19.030;2024-02-23T01:25:53;99068.31;;;10.99;60.12
80103;BME280;69865;47.648;19.030;2024-02-23T01:26:27;99061.22;;;10.99;59.59
80103;BME280;69865;47.648;19.030;2024-02-23T01:26:59;99053.84;;;10.95;59.97
80103;BME280;69865;47.648;19.030;2024-02-23T01:27:31;99065.50;;;11.00;60.06
80103;BME280;69865;47.648;19.030;2024-02-23T01:28:04;99068.63;;;11.04;60.06
80103;BME280;69865;47.648;19.030;2024-02-23T01:28:36;99064.66;;;11.00;60.03
80103;BME280;69865;47.648;19.030;2024-02-23T01:29:08;99055.31;;;10.97;59.89
80103;BME280;69865;47.648;19.030;2024-02-23T01:29:40;99055.94;;;10.99;60.20
80103;BME280;69865;47.648;19.030;2024-02-23T01:30:12;99064.84;;;10.98;59.78
80103;BME280;69865;47.648;19.030;2024-02-23T01:30:44;99059.91;;;10.95;59.92
80103;BME280;69865;47.648;19.030;2024-02-23T01:31:17;99058.91;;;10.96;60.40
80103;BME280;69865;47.648;19.030;2024-02-23T01:31:49;99050.84;;;10.98;60.59
80103;BME280;69865;47.648;19.030;2024-02-23T01:32:22;99068.47;;;10.97;60.50
80103;BME280;69865;47.648;19.030;2024-02-23T01:32:54;99058.09;;;10.96;60.55
80103;BME280;69865;47.648;19.030;2024-02-23T01:33:26;99056.47;;;10.95;60.90
80103;BME280;69865;47.648;19.030;2024-02-23T01:33:59;99048.03;;;10.99;60.05
80103;BME280;69865;47.648;19.030;2024-02-23T01:34:31;99047.41;;;10.97;60.61
80103;BME280;69865;47.648;19.030;2024-02-23T01:35:03;99053.50;;;10.98;60.63
80103;BME280;69865;47.648;19.030;2024-02-23T01:35:36;99048.38;;;10.96;61.30
80103;BME280;69865;47.648;19.030;2024-02-23T01:36:08;99053.00;;;10.94;61.53
80103;BME280;69865;47.648;19.030;2024-02-23T01:36:40;99049.22;;;10.89;61.78
80103;BME280;69865;47.648;19.030;2024-02-23T01:37:12;99054.16;;;10.92;61.49
80103;BME280;69865;47.648;19.030;2024-02-23T01:37:44;99048.22;;;10.90;62.04
80103;BME280;69865;47.648;19.030;2024-02-23T01:38:16;99049.22;;;10.89;62.35
80103;BME280;69865;47.648;19.030;2024-02-23T01:38:48;99050.19;;;10.88;61.91
80103;BME280;69865;47.648;19.030;2024-02-23T01:39:20;99049.56;;;10.86;62.13
80103;BME280;69865;47.648;19.030;2024-02-23T01:39:52;99043.13;;;10.80;62.93
80103;BME280;69865;47.648;19.030;2024-02-23T01:40:24;99046.94;;;10.77;63.70
80103;BME280;69865;47.648;19.030;2024-02-23T01:40:56;99039.19;;;10.76;63.54
80103;BME280;69865;47.648;19.030;2024-02-23T01:41:30;99050.53;;;10.76;63.48
80103;BME280;69865;47.648;19.030;2024-02-23T01:42:02;99048.41;;;10.72;64.19
80103;BME280;69865;47.648;19.030;2024-02-23T01:42:34;99049.22;;;10.72;64.84
80103;BME280;69865;47.648;19.030;2024-02-23T01:43:06;99052.19;;;10.69;63.98
80103;BME280;69865;47.648;19.030;2024-02-23T01:43:39;99047.75;;;10.70;63.86
80103;BME280;69865;47.648;19.030;2024-02-23T01:44:11;99047.75;;;10.70;64.76
80103;BME280;69865;47.648;19.030;2024-02-23T01:44:43;99061.56;;;10.64;64.63
80103;BME280;69865;47.648;19.030;2024-02-23T01:45:15;99050.19;;;10.63;64.14
80103;BME280;69865;47.648;19.030;2024-02-23T01:45:48;99054.16;;;10.59;65.20
80103;BME280;69865;47.648;19.030;2024-02-23T01:46:20;99016.31;;;10.60;66.14
80103;BME280;69865;47.648;19.030;2024-02-23T01:46:53;99042.81;;;10.59;65.45
80103;BME280;69865;47.648;19.030;2024-02-23T01:47:25;99041.16;;;10.58;65.55
80103;BME280;69865;47.648;19.030;2024-02-23T01:47:59;99041.31;;;10.56;67.04
80103;BME280;69865;47.648;19.030;2024-02-23T01:48:33;99049.41;;;10.55;66.27
80103;BME280;69865;47.648;19.030;2024-02-23T01:49:07;99040.19;;;10.51;66.99
80103;BME280;69865;47.648;19.030;2024-02-23T01:49:40;99049.22;;;10.48;68.06
80103;BME280;69865;47.648;19.030;2024-02-23T01:50:12;99046.25;;;10.43;68.02
80103;BME280;69865;47.648;19.030;2024-02-23T01:50:45;99042.00;;;10.42;67.64
80103;BME280;69865;47.648;19.030;2024-02-23T01:51:17;99037.56;;;10.43;68.73
80103;BME280;69865;47.648;19.030;2024-02-23T01:51:49;99043.31;;;10.38;68.82
80103;BME280;69865;47.648;19.030;2024-02-23T01:52:22;99053.16;;;10.36;68.71
80103;BME280;69865;47.648;19.030;2024-02-23T01:53:00;99052.00;;;10.30;68.65
80103;BME280;69865;47.648;19.030;2024-02-23T01:53:33;99041.50;;;10.30;69.92
80103;BME280;69865;47.648;19.030;2024-02-23T01:54:05;99038.03;;;10.30;69.65
80103;BME280;69865;47.648;19.030;2024-02-23T01:54:38;99038.03;;;10.30;68.86
80103;BME280;69865;47.648;19.030;2024-02-23T01:55:10;99053.31;;;10.26;69.54
80103;BME280;69865;47.648;19.030;2024-02-23T01:55:45;99036.22;;;10.22;71.05
80103;BME280;69865;47.648;19.030;2024-02-23T01:56:19;99039.66;;;10.23;70.45
80103;BME280;69865;47.648;19.030;2024-02-23T01:56:53;99049.03;;;10.17;71.32
80103;BME280;69865;47.648;19.030;2024-02-23T01:57:28;99052.81;;;10.15;70.53
80103;BME280;69865;47.648;19.030;2024-02-23T01:58:21;99042.28;;;10.15;72.36
80103;BME280;69865;47.648;19.030;2024-02-23T01:58:55;99037.28;;;10.12;72.02
80103;BME280;69865;47.648;19.030;2024-02-23T01:59:28;99037.28;;;10.12;70.60
80103;BME280;69865;47.648;19.030;2024-02-23T02:00:01;99047.00;;;10.11;72.34
80103;BME280;69865;47.648;19.030;2024-02-23T02:00:34;99030.72;;;10.08;70.95
80103;BME280;69865;47.648;19.030;2024-02-23T02:01:07;99042.53;;;10.04;70.70
80103;BME280;69865;47.648;19.030;2024-02-23T02:01:39;99057.19;;;10.06;71.33
80103;BME280;69865;47.648;19.030;2024-02-23T02:02:12;99041.41;;;10.06;72.10
80103;BME280;69865;47.648;19.030;2024-02-23T02:02:44;99037.28;;;10.04;73.19
80103;BME280;69865;47.648;19.030;2024-02-23T02:03:17;99036.31;;;10.05;72.14
80103;BME280;69865;47.648;19.030;2024-02-23T02:03:49;99034.47;;;9.97;72.56
80103;BME280;69865;47.648;19.030;2024-02-23T02:04:21;99050.25;;;9.97;72.85
80103;BME280;69865;47.648;19.030;2024-02-23T02:04:53;99044.66;;;10.00;73.18
80103;BME280;69865;47.648;19.030;2024-02-23T02:05:25;99039.41;;;10.00;72.98
80103;BME280;69865;47.648;19.030;2024-02-23T02:05:58;99053.38;;;10.01;72.22
80103;BME280;69865;47.648;19.030;2024-02-23T02:06:31;99025.28;;;10.01;72.05
80103;BME280;69865;47.648;19.030;2024-02-23T02:07:06;99055.38;;;9.99;72.64
80103;BME280;69865;47.648;19.030;2024-02-23T02:07:40;99047.13;;;9.94;74.51
80103;BME280;69865;47.648;19.030;2024-02-23T02:08:13;99048.28;;;9.91;73.25
80103;BME280;69865;47.648;19.030;2024-02-23T02:08:45;99045.66;;;9.91;73.74
80103;BME280;69865;47.648;19.030;2024-02-23T02:09:18;99031.19;;;9.95;73.28
80103;BME280;69865;47.648;19.030;2024-02-23T02:09:50;99035.81;;;10.01;72.25
80103;BME280;69865;47.648;19.030;2024-02-23T02:10:24;99044.34;;;10.03;72.48
80103;BME280;69865;47.648;19.030;2024-02-23T02:10:57;99057.81;;;10.00;72.98
80103;BME280;69865;47.648;19.030;2024-02-23T02:11:29;99057.31;;;9.97;72.50
80103;BME280;69865;47.648;19.030;2024-02-23T02:12:03;99051.22;;;9.96;74.07
80103;BME280;69865;47.648;19.030;2024-02-23T02:12:35;99039.75;;;9.97;74.17
80103;BME280;69865;47.648;19.030;2024-02-23T02:13:07;99050.75;;;10.01;72.42
80103;BME280;69865;47.648;19.030;2024-02-23T02:13:39;99044.66;;;10.00;73.47
80103;BME280;69865;47.648;19.030;2024-02-23T02:14:11;99048.47;;;9.98;73.91
80103;BME280;69865;47.648;19.030;2024-02-23T02:14:43;99044.66;;;9.92;74.00
80103;BME280;69865;47.648;19.030;2024-02-23T02:15:16;99043.50;;;9.86;74.82
80103;BME280;69865;47.648;19.030;2024-02-23T02:15:48;99045.94;;;9.88;74.82
80103;BME280;69865;47.648;19.030;2024-02-23T02:16:20;99051.22;;;9.88;74.88
80103;BME280;69865;47.648;19.030;2024-02-23T02:16:52;99049.72;;;9.85;74.61
80103;BME280;69865;47.648;19.030;2024-02-23T02:17:24;99045.44;;;9.84;74.39
80103;BME280;69865;47.648;19.030;2024-02-23T02:17:58;99025.13;;;9.95;73.41
80103;BME280;69865;47.648;19.030;2024-02-23T02:18:30;99040.56;;;9.98;73.66
80103;BME280;69865;47.648;19.030;2024-02-23T02:19:02;99054.22;;;10.01;73.53
80103;BME280;69865;47.648;19.030;2024-02-23T02:19:34;99055.03;;;10.02;73.53
80103;BME280;69865;47.648;19.030;2024-02-23T02:20:11;99044.66;;;10.00;73.64
80103;BME280;69865;47.648;19.030;2024-02-23T02:20:51;99042.84;;;9.93;73.72
80103;BME280;69865;47.648;19.030;2024-02-23T02:21:23;99043.84;;;10.00;74.01
80103;BME280;69865;47.648;19.030;2024-02-23T02:21:56;99049.44;;;9.97;73.55
80103;BME280;69865;47.648;19.030;2024-02-23T02:22:28;99052.25;;;9.95;73.65
80103;BME280;69865;47.648;19.030;2024-02-23T02:23:00;99032.00;;;9.96;74.38
80103;BME280;69865;47.648;19.030;2024-02-23T02:23:35;99050.25;;;9.97;73.84
80103;BME280;69865;47.648;19.030;2024-02-23T02:24:10;99041.03;;;9.93;74.26
80103;BME280;69865;47.648;19.030;2024-02-23T02:24:46;99037.91;;;9.89;73.88
80103;BME280;69865;47.648;19.030;2024-02-23T02:25:18;99046.16;;;9.95;74.16
80103;BME280;69865;47.648;19.030;2024-02-23T02:25:53;99049.59;;;9.95;74.03
80103;BME280;69865;47.648;19.030;2024-02-23T02:26:25;99045.97;;;9.96;73.81
80103;BME280;69865;47.648;19.030;2024-02-23T02:26:57;99052.38;;;9.94;73.87
80103;BME280;69865;47.648;19.030;2024-02-23T02:27:31;99044.66;;;9.92;74.35
80103;BME280;69865;47.648;19.030;2024-02-23T02:28:06;99045.97;;;9.96;74.17
80103;BME280;69865;47.648;19.030;2024-02-23T02:28:38;99031.50;;;9.92;74.59
80103;BME280;69865;47.648;19.030;2024-02-23T02:29:10;99039.09;;;9.95;74.07
80103;BME280;69865;47.648;19.030;2024-02-23T02:29:42;99050.41;;;9.96;74.29
80103;BME280;69865;47.648;19.030;2024-02-23T02:30:14;99040.41;;;9.99;74.04
80103;BME280;69865;47.648;19.030;2024-02-23T02:30:46;99037.78;;;9.99;74.62
80103;BME280;69865;47.648;19.030;2024-02-23T02:31:18;99041.22;;;10.00;74.06
80103;BME280;69865;47.648;19.030;2024-02-23T02:31:51;99048.31;;;9.99;73.79
80103;BME280;69865;47.648;19.030;2024-02-23T02:32:23;99041.53;;;9.97;75.33
80103;BME280;69865;47.648;19.030;2024-02-23T02:32:55;99054.03;;;9.95;75.39
80103;BME280;69865;47.648;19.030;2024-02-23T02:33:28;99036.75;;;9.92;76.01
80103;BME280;69865;47.648;19.030;2024-02-23T02:34:00;99042.03;;;9.92;74.44
80103;BME280;69865;47.648;19.030;2024-02-23T02:34:32;99039.56;;;9.90;75.95
80103;BME280;69865;47.648;19.030;2024-02-23T02:35:05;99053.84;;;9.88;75.19
80103;BME280;69865;47.648;19.030;2024-02-23T02:35:37;99049.41;;;9.88;75.90
80103;BME280;69865;47.648;19.030;2024-02-23T02:36:09;99040.88;;;9.86;75.73
80103;BME280;69865;47.648;19.030;2024-02-23T02:36:41;99048.91;;;9.85;75.72
80103;BME280;69865;47.648;19.030;2024-02-23T02:37:14;99055.13;;;9.84;76.70
80103;BME280;69865;47.648;19.030;2024-02-23T02:37:46;99048.06;;;9.84;75.48
80103;BME280;69865;47.648;19.030;2024-02-23T02:38:18;99049.72;;;9.85;75.69
80103;BME280;69865;47.648;19.030;2024-02-23T02:38:51;99045.63;;;9.83;76.29
80103;BME280;69865;47.648;19.030;2024-02-23T02:39:23;99043.00;;;9.83;76.17
80103;BME280;69865;47.648;19.030;2024-02-23T02:39:55;99045.63;;;9.83;76.09
80103;BME280;69865;47.648;19.030;2024-02-23T02:40:27;99049.56;;;9.79;77.22
80103;BME280;69865;47.648;19.030;2024-02-23T02:40:59;99051.66;;;9.75;76.63
80103;BME280;69865;47.648;19.030;2024-02-23T02:41:36;99044.91;;;9.73;76.98
80103;BME280;69865;47.648;19.030;2024-02-23T02:42:08;99050.31;;;9.71;77.47
80103;BME280;69865;47.648;19.030;2024-02-23T02:42:41;99045.91;;;9.72;78.57
80103;BME280;69865;47.648;19.030;2024-02-23T02:43:13;99048.69;;;9.70;79.12
80103;BME280;69865;47.648;19.030;2024-02-23T02:43:45;99044.56;;;9.68;79.16
80103;BME280;69865;47.648;19.030;2024-02-23T02:44:17;99052.44;;;9.68;77.71
80103;BME280;69865;47.648;19.030;2024-02-23T02:44:50;99057.06;;;9.66;78.62
80103;BME280;69865;47.648;19.030;2024-02-23T02:45:22;99055.25;;;9.66;78.61
80103;BME280;69865;47.648;19.030;2024-02-23T02:45:54;99067.44;;;9.67;78.78
80103;BME280;69865;47.648;19.030;2024-02-23T02:46:26;99057.88;;;9.66;78.22
80103;BME280;69865;47.648;19.030;2024-02-23T02:46:58;99050.81;;;9.67;78.16
80103;BME280;69865;47.648;19.030;2024-02-23T02:47:30;99058.03;;;9.65;79.02
80103;BME280;69865;47.648;19.030;2024-02-23T02:48:03;99062.78;;;9.61;79.77
80103;BME280;69865;47.648;19.030;2024-02-23T02:48:35;99056.06;;;9.59;79.65
80103;BME280;69865;47.648;19.030;2024-02-23T02:49:07;99049.13;;;9.58;78.89
80103;BME280;69865;47.648;19.030;2024-02-23T02:49:40;99069.34;;;9.57;80.34
80103;BME280;69865;47.648;19.030;2024-02-23T02:50:12;99055.03;;;9.60;79.03
80103;BME280;69865;47.648;19.030;2024-02-23T02:50:45;99059.66;;;9.58;79.99
80103;BME280;69865;47.648;19.030;2024-02-23T02:51:17;99051.91;;;9.56;79.89